Date,TemperatureHighF,TemperatureAvgF,TemperatureLowF,DewpointHighF,DewpointAvgF,DewpointLowF,HumidityHigh,HumidityAvg,HumidityLow,PressureMaxIn,PressureMinIn,WindSpeedMaxMPH,WindSpeedAvgMPH,GustSpeedMaxMPH,PrecipitationSumIn
2012-1-1,60.8,54.1,49.3,18.5,10.1,2.5,27,17,13,30.08,29.99,15,5,15,0.00
2012-1-2,59.0,52.4,46.9,47.6,35.7,15.3,76,55,27,30.19,30.05,9,1,9,0.00
2012-1-3,63.0,53.8,48.0,50.4,25.6,3.7,83,44,11,30.22,30.14,10,2,10,0.00
2012-1-4,69.1,57.8,48.2,22.3,9.0,3.4,35,15,10,30.25,30.16,11,3,11,0.00
2012-1-5,64.6,53.8,46.0,28.1,16.2,2.5,47,24,12,30.19,30.05,8,1,8,0.00
2012-1-6,59.4,50.1,43.9,39.8,27.0,15.9,67,42,19,30.08,29.99,9,2,9,0.00
2012-1-7,66.2,55.3,43.3,24.9,10.9,2.5,40,20,10,30.14,30.02,20,4,20,0.00
2012-1-8,64.2,55.8,50.7,8.6,4.9,2.5,14,13,11,30.14,30.02,18,4,18,0.00
2012-1-9,65.1,54.0,45.1,8.6,4.2,-0.2,19,13,10,30.14,30.02,10,2,10,0.00
2012-1-10,63.3,53.3,45.7,15.8,6.0,1.5,28,15,11,30.05,29.96,11,3,11,0.00
2012-1-11,66.6,55.3,46.0,8.6,4.3,-0.2,15,13,10,30.02,29.90,10,2,10,0.00
2012-1-12,64.6,56.2,47.8,8.6,4.9,1.0,14,12,10,29.99,29.90,16,4,16,0.00
2012-1-13,66.7,56.4,49.5,8.6,4.9,2.1,14,12,10,30.08,29.99,17,4,17,0.00
2012-1-14,67.1,53.6,46.2,24.3,5.8,-0.2,41,15,10,30.08,29.96,7,1,7,0.00
2012-1-15,52.2,46.3,39.4,38.2,17.4,-3.2,69,35,14,30.02,29.87,14,4,14,0.00
2012-1-16,51.3,41.0,34.0,11.6,0.6,-5.1,34,19,12,30.16,30.02,13,4,13,0.00
2012-1-17,51.6,41.9,33.8,18.5,7.1,-2.6,40,25,14,30.28,30.16,10,2,10,0.00
2012-1-18,53.6,44.2,37.0,27.9,15.6,5.3,51,33,15,30.22,30.14,6,1,6,0.00
2012-1-19,52.7,48.4,43.3,47.7,32.3,23.7,83,55,37,30.14,29.90,11,3,11,0.12
2012-1-20,59.2,56.5,52.7,57.8,51.6,47.7,95,84,74,29.90,29.57,17,5,17,1.97
2012-1-21,56.1,49.6,43.0,54.7,28.8,2.5,96,52,13,30.02,29.63,17,4,17,0.16
2012-1-22,53.1,47.9,44.1,45.7,28.9,20.6,76,48,33,30.02,29.66,17,4,17,0.28
2012-1-23,56.3,52.6,48.7,53.1,49.4,44.1,94,89,73,30.02,29.52,15,3,15,0.67
2012-1-24,58.3,51.2,47.5,50.3,36.5,20.1,88,61,26,30.31,30.02,6,1,6,0.00
2012-1-25,67.1,56.7,48.2,48.1,33.2,19.6,75,45,17,30.31,30.19,13,2,13,0.00
2012-1-26,60.4,56.4,53.1,54.4,47.0,35.6,84,71,48,30.22,30.11,8,1,8,0.00
2012-1-27,66.2,55.7,47.1,48.3,15.6,1.7,79,28,10,30.16,30.08,9,2,9,0.00
2012-1-28,63.0,53.4,46.9,7.8,3.0,-3.0,14,13,11,30.22,30.11,12,3,12,0.00
2012-1-29,66.2,54.2,48.4,26.0,15.6,2.0,37,23,10,30.16,30.02,13,2,13,0.00
2012-1-30,59.4,52.2,46.8,41.5,24.8,2.5,70,37,13,30.05,29.90,8,1,8,0.00
2012-1-31,58.6,50.5,45.5,45.3,35.8,21.9,76,59,25,30.08,29.96,9,2,9,0.00
2012-2-1,58.3,51.9,45.9,52.1,34.2,20.8,82,54,25,30.19,30.05,10,2,10,0.00
2012-2-2,65.8,54.0,45.5,34.2,13.6,2.5,55,24,10,30.14,29.87,6,1,6,0.00
2012-2-3,59.5,52.5,44.8,19.4,7.3,-4.7,27,17,12,29.96,29.87,13,4,13,0.00
2012-2-4,64.2,53.6,46.2,18.1,7.5,1.2,30,16,11,29.99,29.90,10,3,11,0.00
2012-2-5,64.6,55.9,50.0,8.5,4.9,2.5,14,13,10,30.02,29.87,13,4,13,0.00
2012-2-6,63.0,54.3,48.9,30.2,6.5,1.8,46,15,11,29.90,29.66,13,3,13,0.08
2012-2-7,55.9,52.5,50.2,45.0,32.1,19.5,74,47,26,29.99,29.63,17,3,17,0.20
2012-2-8,64.4,55.7,48.9,47.1,29.9,11.1,73,43,13,30.14,29.99,8,2,12,0.00
2012-2-9,67.8,57.3,49.1,33.4,22.9,11.1,47,29,12,30.16,30.02,9,2,9,0.00
2012-2-10,58.3,53.8,48.6,50.9,35.1,18.3,88,52,27,30.08,29.96,10,2,10,0.04
2012-2-11,58.5,53.1,47.7,53.7,42.0,25.9,92,70,29,29.99,29.90,9,2,9,0.04
2012-2-12,57.2,50.1,46.0,38.4,31.0,21.1,66,50,25,29.99,29.87,10,3,10,0.12
2012-2-13,54.9,47.5,44.2,41.0,26.7,11.3,75,46,18,29.93,29.78,14,4,14,0.16
2012-2-14,58.6,48.2,40.5,33.3,18.3,5.3,61,34,14,29.99,29.87,14,4,14,0.00
2012-2-15,58.1,48.5,38.3,43.3,9.6,-0.2,76,24,12,30.05,29.93,17,4,17,0.08
2012-2-16,66.0,52.6,43.3,31.1,9.0,-4.9,55,20,10,30.14,30.05,15,2,15,0.00
2012-2-17,61.5,52.3,45.0,43.8,31.5,14.7,73,49,17,30.16,30.05,8,1,8,0.00
2012-2-18,60.1,51.8,42.1,47.4,24.3,2.5,81,43,12,30.08,29.96,13,2,13,0.00
2012-2-19,56.3,46.5,40.1,26.1,11.5,-0.2,45,26,12,30.05,29.93,11,4,11,0.00
2012-2-20,59.0,50.7,46.4,38.2,26.1,8.7,62,41,14,30.11,29.96,8,2,8,0.00
2012-2-21,65.3,55.6,46.4,49.5,30.9,15.1,79,45,15,30.19,30.08,9,2,9,0.00
2012-2-22,75.9,62.1,52.7,31.4,16.9,6.0,39,20,8,30.16,29.99,10,2,10,0.00
2012-2-23,74.8,61.7,48.9,26.8,14.2,4.9,39,19,8,29.99,29.87,17,4,17,0.00
2012-2-24,71.8,59.0,48.9,27.2,10.3,3.7,41,16,9,30.08,29.87,11,3,11,0.00
2012-2-25,60.4,49.6,42.6,26.3,8.6,-0.2,42,20,12,30.22,30.08,13,4,14,0.00
2012-2-26,54.5,44.6,36.7,18.5,8.2,-0.6,41,24,13,30.08,29.72,11,3,11,0.00
2012-2-27,55.8,44.8,37.8,23.1,12.7,-0.2,52,31,12,29.84,29.69,10,2,10,0.00
2012-2-28,54.0,45.8,38.7,30.2,12.2,0.8,53,28,13,30.08,29.84,13,4,13,0.00
2012-2-29,54.7,49.1,43.2,50.2,32.1,9.7,93,57,18,30.14,29.90,14,4,14,0.43
2012-3-1,57.0,48.3,41.9,53.5,30.8,5.0,92,55,16,30.11,30.05,13,4,13,0.43
2012-3-2,64.0,51.0,41.5,27.3,8.4,-1.6,55,21,11,30.22,30.08,9,2,9,0.00
2012-3-3,69.6,56.5,45.3,10.7,4.8,-0.2,15,12,10,30.22,30.11,11,3,11,0.00
2012-3-4,74.5,60.2,50.2,11.1,6.6,2.5,16,12,8,30.11,29.96,12,2,12,0.00
2012-3-5,60.1,52.3,47.7,36.3,22.2,2.5,64,34,13,29.99,29.87,9,2,9,0.00
2012-3-6,57.2,48.5,41.2,41.2,10.3,-1.5,71,25,12,29.96,29.81,16,4,16,0.00
2012-3-7,63.7,49.8,39.7,8.2,1.3,-7.1,23,13,11,30.08,29.93,13,2,13,0.00
2012-3-8,69.1,54.4,41.4,28.9,7.8,-1.2,48,17,10,30.22,30.08,11,2,11,0.00
2012-3-9,72.7,55.4,45.3,21.2,6.4,-0.2,38,14,9,30.22,30.02,8,1,8,0.00
2012-3-10,59.2,49.0,43.7,34.6,27.6,20.5,59,44,24,30.02,29.87,10,3,10,0.00
2012-3-11,57.7,49.3,43.0,34.4,26.0,12.2,55,41,17,29.96,29.87,10,3,10,0.00
2012-3-12,59.4,50.3,41.9,35.1,19.0,3.7,66,34,12,29.93,29.81,15,2,15,0.00
2012-3-13,54.7,53.4,50.7,50.7,45.5,26.2,87,76,37,29.90,29.72,14,4,14,1.46
2012-3-14,58.1,56.4,54.7,56.2,54.0,50.6,94,92,86,30.02,29.84,11,3,11,2.99
2012-3-15,59.4,57.0,55.6,57.6,55.3,54.2,95,94,93,30.05,29.96,11,3,11,0.51
2012-3-16,57.6,55.1,48.9,56.1,53.7,47.7,97,95,94,29.96,29.63,14,4,14,1.42
2012-3-17,51.1,46.4,42.8,48.5,30.1,1.0,97,63,14,29.66,29.46,13,3,13,0.00
2012-3-18,52.5,44.8,40.6,19.9,7.0,-4.9,41,23,12,29.84,29.54,18,5,18,0.00
2012-3-19,56.3,46.0,37.0,12.9,3.3,-3.2,36,18,12,29.99,29.81,8,2,8,0.00
2012-3-20,62.4,53.1,46.6,27.2,7.9,-2.6,37,17,11,30.11,29.99,7,2,7,0.00
2012-3-21,67.8,56.0,48.6,43.3,27.0,8.2,67,36,10,30.08,29.87,9,2,9,0.00
2012-3-22,60.4,53.2,43.3,48.6,25.8,-0.2,82,45,12,29.93,29.84,13,3,13,0.00
2012-3-23,60.8,49.1,39.9,25.1,10.5,2.5,47,23,12,29.99,29.81,10,2,10,0.00
2012-3-24,50.7,47.0,43.3,37.5,26.8,2.1,66,50,14,29.84,29.72,13,1,13,1.14
2012-3-25,59.0,48.2,42.3,35.4,25.1,4.5,70,45,12,29.81,29.66,10,2,10,0.28
2012-3-26,59.5,49.3,40.3,28.3,13.5,2.5,51,28,12,29.99,29.81,13,2,13,0.00
2012-3-27,55.9,52.3,48.4,50.3,27.1,3.9,83,43,15,29.93,29.75,16,5,16,1.34
2012-3-28,62.6,56.2,52.0,58.9,43.0,23.4,91,66,24,30.02,29.84,10,3,10,0.04
2012-3-29,62.1,54.2,50.7,47.2,36.7,12.1,75,55,16,30.05,29.99,10,2,10,0.00
2012-3-30,61.0,56.6,54.7,47.4,38.8,28.6,73,53,31,30.02,29.81,11,2,11,0.00
2012-3-31,57.2,52.8,46.6,42.0,28.7,3.8,72,43,12,29.96,29.63,18,6,18,0.51
2012-4-1,60.3,50.0,42.4,30.1,12.2,1.5,51,24,12,30.19,29.93,15,4,17,0.00
2012-4-2,66.6,52.8,43.3,25.2,14.3,2.8,46,25,10,30.16,29.96,10,2,10,0.00
2012-4-3,64.4,52.7,45.9,45.5,25.0,6.1,72,38,10,30.02,29.93,13,3,15,0.00
2012-4-4,59.0,49.2,43.2,26.1,11.2,-0.8,49,24,12,30.11,30.02,16,3,16,0.00
2012-4-5,57.4,46.3,38.7,13.3,5.7,-0.8,33,20,12,30.08,29.99,15,3,15,0.00
2012-4-6,61.0,48.4,37.8,23.3,9.1,-0.2,48,23,11,30.19,30.05,9,3,9,0.00
2012-4-7,68.2,52.7,41.7,21.9,4.8,-5.2,37,15,10,30.05,29.93,9,2,9,0.00
2012-4-8,64.4,50.9,41.9,27.3,14.3,-0.2,50,26,10,29.96,29.90,10,2,10,0.00
2012-4-9,68.9,53.6,44.4,33.9,16.1,0.1,50,26,10,29.90,29.72,10,2,10,0.00
2012-4-10,56.3,53.4,50.4,46.6,36.2,6.8,77,56,16,29.81,29.72,8,1,8,0.75
2012-4-11,58.6,53.4,50.2,50.8,31.9,8.4,87,52,14,29.90,29.69,14,4,14,0.35
2012-4-12,60.1,52.1,47.8,41.4,24.0,3.5,70,39,12,29.93,29.72,15,4,15,1.42
2012-4-13,57.2,50.0,45.1,42.0,23.8,2.5,74,43,12,29.78,29.60,15,4,15,0.47
2012-4-14,64.0,52.1,43.0,32.3,13.3,2.5,50,24,11,30.02,29.75,11,3,11,0.00
2012-4-15,61.7,53.5,49.5,37.5,29.6,17.6,60,42,19,30.14,30.02,9,3,9,0.00
2012-4-16,62.2,53.8,48.2,37.4,26.4,10.8,62,38,14,30.14,30.08,10,2,10,0.00
2012-4-17,61.0,54.8,50.7,45.0,35.6,22.8,69,51,25,30.11,29.99,10,2,10,0.00
2012-4-18,69.3,57.2,49.6,39.0,25.5,6.0,62,36,10,30.08,29.99,9,2,9,0.00
2012-4-19,73.9,62.6,53.4,47.4,30.3,14.4,67,35,11,30.08,29.99,8,1,8,0.00
2012-4-20,82.9,69.4,58.3,42.7,22.5,6.7,48,22,6,30.02,29.90,6,1,6,0.00
2012-4-21,86.9,72.1,59.5,16.4,10.4,6.4,17,9,6,29.93,29.81,6,1,6,0.00
2012-4-22,70.3,57.1,52.0,51.3,35.1,8.5,89,49,10,29.90,29.81,12,3,12,0.00
2012-4-23,63.0,57.4,54.1,52.9,37.2,21.9,94,54,21,29.96,29.84,14,6,14,0.00
2012-4-24,69.3,59.8,55.9,39.2,30.4,12.1,50,35,12,29.99,29.90,11,3,11,0.00
2012-4-25,71.2,60.3,54.9,50.6,32.9,12.5,76,41,12,29.96,29.72,10,2,10,0.12
2012-4-26,62.4,56.1,48.0,54.0,28.7,2.7,92,47,11,30.14,29.72,15,5,15,0.16
2012-4-27,68.7,55.8,45.5,27.0,14.4,4.8,38,22,10,30.16,30.08,11,3,11,0.00
2012-4-28,73.4,60.7,49.3,30.2,17.3,7.1,39,21,9,30.08,29.84,10,2,10,0.00
2012-4-29,74.1,60.5,52.0,41.4,25.3,8.1,53,31,8,29.87,29.81,8,1,8,0.00
2012-4-30,70.7,58.9,50.9,42.1,25.9,9.9,58,33,12,29.93,29.87,15,2,15,0.00
2012-5-1,67.6,56.4,49.1,38.2,20.6,3.9,61,30,10,29.87,29.81,11,3,11,0.00
2012-5-2,61.9,51.7,45.9,29.9,20.3,5.5,52,32,11,29.93,29.81,14,4,14,0.00
2012-5-3,57.9,53.8,48.7,48.5,37.0,25.2,78,54,36,30.05,29.87,10,4,10,0.04
2012-5-4,65.8,55.8,48.7,49.2,21.1,3.8,82,34,10,30.14,30.02,10,3,10,0.00
2012-5-5,74.7,60.6,47.1,26.5,13.4,6.0,42,19,8,30.14,29.99,12,3,12,0.00
2012-5-6,81.0,67.7,54.5,12.4,8.3,3.7,15,10,7,30.02,29.96,15,3,15,0.00
2012-5-7,84.0,67.5,53.4,29.1,10.7,6.0,39,12,6,29.99,29.90,6,1,6,0.00
2012-5-8,78.4,61.5,49.6,34.8,21.1,6.7,53,26,8,29.93,29.84,8,1,8,0.00
2012-5-9,68.0,57.0,49.5,43.2,24.3,6.7,62,33,10,29.93,29.84,9,2,9,0.00
2012-5-10,76.3,60.1,47.1,36.8,19.3,3.9,55,27,8,29.87,29.81,9,2,9,0.00
2012-5-11,75.0,60.6,49.6,33.1,14.8,3.2,51,20,8,29.93,29.81,8,2,8,0.00
2012-5-12,69.4,55.5,48.7,51.1,31.4,6.9,80,47,10,30.02,29.90,10,2,10,0.00
2012-5-13,60.8,54.3,50.7,50.2,34.0,14.9,91,52,17,30.05,29.96,14,6,14,0.00
2012-5-14,66.6,58.3,52.5,39.8,24.1,6.7,59,32,10,30.05,29.96,10,3,10,0.00
2012-5-15,61.7,55.1,51.3,45.8,33.1,18.8,74,47,19,29.99,29.93,12,4,12,0.00
2012-5-16,62.2,54.2,51.3,50.1,38.6,23.2,85,60,24,29.99,29.87,10,4,10,0.00
2012-5-17,66.2,55.6,50.5,47.7,28.6,6.7,83,43,10,29.90,29.78,14,4,14,0.00
2012-5-18,71.1,57.2,47.8,30.0,18.5,6.0,47,26,9,29.93,29.81,9,3,9,0.00
2012-5-19,69.3,57.9,47.7,35.2,18.8,6.7,56,26,10,29.93,29.84,9,2,9,0.00
2012-5-20,73.2,60.0,49.6,35.2,19.9,7.8,48,25,9,29.96,29.87,10,2,10,0.00
2012-5-21,63.3,56.9,52.3,50.7,37.6,25.3,83,52,24,30.05,29.93,11,4,11,0.00
2012-5-22,71.4,61.5,53.8,56.0,29.1,6.0,83,40,9,30.08,29.99,14,3,14,0.00
2012-5-23,72.5,60.3,51.6,34.4,16.7,5.6,49,22,9,29.99,29.84,13,3,13,0.00
2012-5-24,70.7,58.9,49.3,21.3,9.5,3.7,28,15,9,29.87,29.66,17,3,17,0.00
2012-5-25,64.8,54.6,47.1,28.1,12.5,3.2,41,20,10,29.78,29.66,14,4,14,0.00
2012-5-26,65.1,54.4,49.1,35.2,26.4,11.1,54,36,13,30.02,29.75,12,4,12,0.00
2012-5-27,61.7,54.7,50.9,36.7,28.4,14.4,55,39,16,30.11,29.99,10,3,10,0.00
2012-5-28,64.4,56.2,48.7,48.7,29.1,10.5,79,42,13,30.02,29.93,11,3,11,0.00
2012-5-29,65.8,56.4,48.7,32.9,21.9,6.7,52,31,10,29.99,29.93,10,4,10,0.00
2012-5-30,69.1,58.1,50.5,42.2,26.3,8.6,68,35,10,30.05,29.96,9,3,9,0.00
2012-5-31,77.5,61.5,50.0,38.9,23.0,6.9,58,29,8,29.99,29.78,7,2,7,0.00
2012-6-1,75.7,61.6,54.0,44.4,27.8,8.5,64,34,8,29.81,29.72,9,2,9,0.00
2012-6-2,69.3,59.4,52.5,52.9,34.5,13.5,82,46,12,29.90,29.75,10,4,10,0.00
2012-6-3,66.6,58.0,51.8,46.5,29.7,12.1,75,41,12,29.93,29.84,10,4,10,0.00
2012-6-4,59.7,55.9,50.2,54.4,34.6,12.5,88,49,17,30.08,29.84,17,5,17,0.08
2012-6-5,67.3,56.5,48.0,28.9,14.4,3.7,45,22,10,30.14,30.05,13,3,13,0.00
2012-6-6,70.3,58.9,48.0,26.5,13.7,6.0,37,19,9,30.05,29.90,10,2,10,0.00
2012-6-7,71.8,59.8,49.8,35.2,22.1,7.8,49,28,9,29.96,29.90,10,3,10,0.00
2012-6-8,73.8,60.3,51.3,43.5,19.6,3.9,62,27,8,29.93,29.87,13,3,13,0.00
2012-6-9,78.6,63.2,48.7,20.7,11.7,6.0,32,15,8,29.96,29.84,9,3,9,0.00
2012-6-10,84.2,72.6,58.1,12.4,8.9,-13.3,12,9,2,29.87,29.81,8,2,8,0.00
2012-6-11,80.1,69.1,56.3,28.4,11.4,6.7,33,12,7,29.93,29.84,7,1,7,0.00
2012-6-12,79.3,64.0,52.2,37.6,22.2,8.5,49,26,7,29.93,29.84,8,2,8,0.00
2012-6-13,67.8,59.1,52.2,47.6,27.8,11.2,78,37,12,29.87,29.72,8,4,8,0.00
2012-6-14,72.9,60.5,51.3,37.7,20.8,6.0,55,27,9,29.78,29.69,10,4,10,0.00
2012-6-15,75.0,61.1,50.2,30.7,19.6,6.9,46,24,8,29.78,29.72,8,2,8,0.00
2012-6-16,90.1,74.7,53.4,38.1,18.6,8.6,48,17,5,29.81,29.75,6,1,6,0.00
2012-6-17,70.0,58.9,54.9,51.4,34.7,6.7,88,45,9,29.87,29.78,12,4,12,0.00
2012-6-18,60.1,55.3,51.3,53.2,38.7,23.2,96,61,25,29.87,29.78,13,6,13,0.00
2012-6-19,73.2,59.6,50.7,45.9,25.0,7.6,70,33,9,29.87,29.78,10,2,10,0.00
2012-6-20,78.8,64.1,53.1,35.9,19.5,7.2,47,21,7,29.81,29.75,10,2,10,0.00
2012-6-21,56.7,53.5,51.3,46.7,35.7,28.5,80,52,35,29.93,29.78,15,6,15,0.00
2012-6-22,63.5,55.0,50.2,49.7,33.7,18.5,78,46,18,29.90,29.81,11,5,11,0.00
2012-6-23,65.7,57.3,50.2,49.5,23.0,6.7,79,32,10,29.87,29.78,14,4,14,0.00
2012-6-24,67.5,57.3,48.4,37.4,18.7,4.4,54,26,10,29.99,29.87,10,3,10,0.00
2012-6-25,65.7,58.2,49.1,38.9,22.6,6.7,54,28,10,30.02,29.96,12,4,12,0.00
2012-6-26,75.0,61.5,49.3,32.8,16.9,5.6,49,22,8,30.02,29.84,10,2,10,0.00
2012-6-27,71.6,61.5,52.5,38.2,22.6,8.5,52,26,9,29.90,29.81,11,2,11,0.00
2012-6-28,71.1,61.2,54.5,46.2,31.6,14.1,67,38,12,30.02,29.87,10,4,10,0.00
2012-6-29,67.6,60.7,56.8,55.3,40.9,27.0,83,53,22,30.05,29.99,12,4,12,0.00
2012-6-30,70.2,62.3,57.9,59.1,46.0,29.8,88,60,23,29.99,29.90,10,3,10,0.00
2012-7-1,65.1,60.6,57.7,54.8,46.2,35.5,81,61,34,29.93,29.84,11,4,11,0.00
2012-7-2,69.3,60.9,54.9,51.6,34.4,12.7,78,44,12,29.87,29.81,12,4,12,0.00
2012-7-3,72.9,60.9,52.9,42.3,26.5,8.5,65,34,9,29.87,29.78,10,4,10,0.00
2012-7-4,65.8,58.2,53.6,47.2,33.2,20.6,70,42,20,29.84,29.78,11,4,11,0.00
2012-7-5,68.0,58.3,53.1,39.5,28.4,12.1,59,36,12,29.93,29.84,12,5,12,0.00
2012-7-6,69.3,59.6,53.4,47.4,30.5,12.1,74,39,12,29.99,29.93,9,3,9,0.00
2012-7-7,74.8,60.6,52.2,52.1,29.5,8.5,71,38,8,29.96,29.90,8,2,8,0.00
2012-7-8,66.9,58.5,52.9,47.1,35.1,20.1,75,47,17,29.99,29.90,10,4,10,0.00
2012-7-9,70.2,59.5,54.0,49.8,33.5,12.1,82,46,12,30.02,29.93,10,4,10,0.00
2012-7-10,77.5,61.5,53.1,49.1,29.5,8.5,74,39,8,29.93,29.81,6,2,6,0.00
2012-7-11,82.0,61.4,52.3,51.2,29.1,8.5,73,38,7,29.87,29.78,7,1,7,0.00
2012-7-12,68.5,59.0,52.9,52.9,33.8,13.4,80,45,15,29.84,29.78,9,3,9,0.00
2012-7-13,58.5,54.6,52.2,48.7,39.2,29.5,78,57,33,29.90,29.81,15,5,15,0.00
2012-7-14,63.7,56.7,53.6,50.2,39.1,24.9,83,56,24,29.93,29.84,10,4,10,0.00
2012-7-15,65.5,58.3,54.7,52.7,41.5,25.8,86,59,23,29.90,29.81,11,4,11,0.00
2012-7-16,61.0,56.4,54.5,54.7,45.3,23.8,96,71,25,29.90,29.75,17,7,17,0.00
2012-7-17,65.1,59.1,54.0,57.3,35.5,11.1,93,52,13,29.96,29.84,13,4,13,0.00
2012-7-18,68.5,59.6,53.8,43.5,28.2,9.3,63,35,10,29.99,29.93,10,3,10,0.00
2012-7-19,69.3,61.5,55.8,58.4,37.6,20.9,85,48,17,29.99,29.90,10,2,10,0.00
2012-7-20,76.6,65.5,57.2,46.6,28.2,8.5,64,32,8,30.05,29.93,8,2,8,0.00
2012-7-21,82.6,67.8,56.5,39.6,24.6,8.5,50,25,6,29.96,29.87,6,1,6,0.00
2012-7-22,71.2,61.1,55.4,48.2,33.3,13.2,71,41,12,29.90,29.84,8,3,8,0.00
2012-7-23,63.9,58.7,55.2,46.7,37.1,25.9,71,47,24,29.90,29.84,15,6,15,0.00
2012-7-24,67.5,59.6,55.8,46.0,35.1,17.1,67,44,15,29.93,29.87,11,5,11,0.00
2012-7-25,66.6,58.5,55.4,46.9,38.0,20.1,68,49,17,29.96,29.90,11,5,11,0.00
2012-7-26,64.8,57.3,54.5,50.4,39.5,22.5,81,56,23,29.96,29.87,13,6,13,0.00
2012-7-27,64.9,57.6,54.3,51.0,39.8,25.3,84,56,23,29.96,29.90,12,5,12,0.00
2012-7-28,73.0,60.8,55.2,51.8,35.5,13.2,81,47,11,30.02,29.93,10,4,10,0.00
2012-7-29,68.0,59.6,54.5,52.0,37.0,17.8,83,50,15,30.02,29.93,10,4,10,0.00
2012-7-30,78.4,63.8,55.6,52.8,31.3,8.6,75,39,8,29.96,29.84,8,2,8,0.00
2012-7-31,69.6,60.0,54.1,46.3,31.6,13.9,66,38,12,29.96,29.87,8,2,8,0.00
2012-8-1,70.9,59.5,54.1,49.7,35.2,13.5,76,46,12,30.02,29.93,8,3,8,0.00
2012-8-2,70.0,59.3,54.3,52.3,36.7,13.7,78,50,12,29.96,29.87,8,3,8,0.00
2012-8-3,64.9,57.0,54.0,52.3,41.7,25.3,84,61,23,29.87,29.81,11,4,11,0.00
2012-8-4,60.6,56.9,53.4,56.5,49.2,33.4,94,77,37,29.96,29.81,12,4,12,0.00
2012-8-5,67.5,60.5,56.1,58.8,43.2,20.3,91,60,17,30.05,29.93,10,3,10,0.00
2012-8-6,74.7,62.9,55.2,40.6,26.7,8.6,57,32,8,30.11,29.99,6,3,8,0.00
2012-8-7,77.9,63.5,54.7,49.0,26.7,7.1,69,32,8,30.02,29.96,9,2,9,0.00
2012-8-8,80.1,63.5,52.9,45.2,26.9,8.5,63,32,7,29.99,29.90,6,1,6,0.00
2012-8-9,77.2,62.4,53.6,51.1,28.2,8.5,69,35,8,29.93,29.81,6,1,6,0.00
2012-8-10,72.0,61.2,54.5,44.7,29.7,12.1,60,35,11,29.84,29.75,7,2,7,0.00
2012-8-11,74.3,60.6,53.6,53.7,33.1,8.5,76,45,8,29.81,29.72,8,2,8,0.00
2012-8-12,73.0,59.8,54.0,56.7,34.6,8.5,87,49,9,29.87,29.78,6,2,6,0.00
2012-8-13,73.4,61.1,54.1,54.4,31.5,8.5,79,42,8,29.84,29.75,8,1,8,0.00
2012-8-14,66.7,58.7,54.0,55.1,40.6,27.2,81,55,23,29.81,29.75,11,3,11,0.00
2012-8-15,64.9,58.9,56.1,56.7,42.5,25.7,92,61,23,29.87,29.78,12,4,12,0.00
2012-8-16,69.1,59.9,56.1,56.3,40.8,21.7,83,55,17,29.93,29.84,8,3,8,0.00
2012-8-17,72.9,62.0,55.8,55.8,36.1,14.4,84,47,11,29.96,29.87,9,3,9,0.00
2012-8-18,70.9,61.5,55.6,46.2,32.1,13.9,65,38,12,29.93,29.87,9,3,9,0.00
2012-8-19,68.9,59.2,54.1,49.9,35.0,14.2,77,46,12,29.96,29.87,11,4,11,0.00
2012-8-20,66.7,57.9,53.4,49.4,36.4,16.8,78,50,15,29.90,29.81,9,4,9,0.00
2012-8-21,65.1,58.6,54.3,50.6,37.3,22.5,81,50,20,29.90,29.81,10,4,10,0.00
2012-8-22,65.1,58.0,54.5,52.1,41.4,25.5,83,59,23,29.90,29.84,10,4,10,0.00
2012-8-23,66.0,58.5,53.8,57.7,44.5,25.8,90,65,23,29.93,29.81,8,3,8,0.00
2012-8-24,66.4,58.2,54.5,52.5,39.0,20.1,79,54,17,29.87,29.81,10,3,10,0.00
2012-8-25,55.9,55.8,55.8,49.0,49.0,48.3,78,78,76,29.87,29.78,11,5,11,0.00
2012-8-26,55.8,55.8,55.8,49.0,49.0,49.0,78,78,78,29.96,29.81,10,4,10,0.00
2012-8-27,76.6,64.6,55.8,49.9,32.5,14.4,78,41,10,30.02,29.93,6,1,6,0.00
2012-8-28,81.1,66.9,57.0,42.0,21.9,6.7,46,23,7,29.99,29.90,7,1,7,0.00
2012-8-29,83.3,65.3,54.0,38.4,23.5,7.9,46,26,6,29.93,29.78,7,1,7,0.00
2012-8-30,64.4,57.7,53.8,50.3,35.3,17.0,73,46,19,29.81,29.75,13,3,13,0.00
2012-8-31,63.1,57.0,54.5,51.0,40.0,24.5,83,57,24,29.93,29.81,13,5,13,0.00
2012-9-1,66.0,57.3,53.1,46.5,33.5,15.8,72,44,15,30.02,29.90,11,3,11,0.00
2012-9-2,78.3,61.3,52.2,52.8,30.4,8.5,72,41,8,29.96,29.87,7,1,7,0.00
2012-9-3,77.9,61.6,51.6,39.2,26.0,7.8,57,32,8,29.93,29.87,8,1,8,0.00
2012-9-4,66.7,57.4,52.0,53.9,37.8,16.4,83,54,15,29.99,29.93,8,2,8,0.00
2012-9-5,65.5,57.6,54.5,54.0,40.3,19.4,83,57,18,29.96,29.90,10,2,10,0.00
2012-9-6,67.5,58.2,53.2,45.3,31.3,12.1,67,41,12,29.99,29.90,10,4,10,0.00
2012-9-7,70.3,59.0,50.9,45.0,27.2,8.3,65,36,9,30.05,29.96,9,2,9,0.00
2012-9-8,68.0,59.4,53.8,42.4,28.0,7.5,62,35,10,30.02,29.93,11,3,11,0.00
2012-9-9,73.9,60.7,52.5,44.2,26.6,8.5,65,34,8,29.96,29.87,10,4,10,0.00
2012-9-10,74.8,61.0,54.3,45.9,31.2,8.5,66,39,8,29.90,29.81,8,2,8,0.00
2012-9-11,67.8,58.5,53.2,47.8,35.5,18.4,70,46,17,29.93,29.78,10,2,10,0.00
2012-9-12,68.0,58.8,55.4,55.7,41.4,20.4,90,59,17,30.05,29.90,9,2,9,0.00
2012-9-13,73.4,59.3,54.1,57.4,37.2,13.2,80,50,11,30.05,29.96,8,1,8,0.00
2012-9-14,66.6,58.5,54.5,54.9,38.6,20.1,84,53,17,30.08,29.96,9,2,9,0.00
2012-9-15,68.4,58.7,52.9,48.7,31.9,12.1,76,44,12,30.08,29.96,8,1,8,0.00
2012-9-16,68.0,56.8,51.8,53.4,35.0,12.1,81,51,12,30.02,29.93,7,2,7,0.00
2012-9-17,64.0,56.2,52.7,45.3,33.6,15.8,73,47,16,30.02,29.96,13,4,13,0.00
2012-9-18,67.8,56.9,50.4,39.3,27.4,11.1,56,37,12,30.05,29.96,9,4,9,0.00
2012-9-19,67.8,58.4,52.9,40.1,28.5,11.9,57,37,12,30.05,29.99,10,4,10,0.00
2012-9-20,72.1,59.5,51.8,43.8,25.9,6.7,64,34,9,30.02,29.93,9,2,9,0.00
2012-9-21,72.1,59.4,50.9,43.1,24.6,8.2,60,32,9,29.96,29.84,6,1,6,0.00
2012-9-22,74.8,60.4,51.6,41.9,23.6,5.8,56,30,8,29.90,29.84,6,1,6,0.00
2012-9-23,73.8,59.7,50.9,47.8,28.4,8.5,77,36,8,29.93,29.84,8,1,8,0.00
2012-9-24,70.3,58.8,52.5,57.8,38.9,13.1,88,57,12,29.93,29.84,10,2,10,0.00
2012-9-25,65.3,56.8,53.1,53.0,40.4,25.8,77,58,23,29.90,29.84,10,2,10,0.00
2012-9-26,64.8,56.6,51.8,46.9,37.3,22.5,74,52,20,29.87,29.81,8,2,8,0.00
2012-9-27,75.2,58.6,52.7,56.3,36.9,8.8,79,53,11,29.90,29.81,6,1,6,0.00
2012-9-28,58.5,55.2,52.3,53.9,46.8,39.4,87,74,53,29.93,29.81,10,2,10,0.00
2012-9-29,70.9,59.3,52.7,61.2,38.5,12.4,91,56,12,30.02,29.93,7,1,7,0.00
2012-9-30,91.0,71.8,52.3,40.9,20.3,8.6,58,21,5,30.05,29.93,6,1,6,0.00
2012-10-1,96.6,80.5,66.6,12.4,9.7,6.1,10,7,4,29.99,29.87,8,1,8,0.00
2012-10-2,98.1,84.1,72.0,12.5,9.5,3.5,9,6,3,29.87,29.78,8,1,8,0.00
2012-10-3,76.5,66.6,58.8,53.9,24.8,6.7,82,32,8,29.96,29.81,13,3,13,0.00
2012-10-4,64.2,58.9,56.5,52.3,39.0,26.1,79,50,25,30.08,29.96,13,6,13,0.00
2012-10-5,68.0,60.3,56.1,46.9,36.1,20.6,68,44,17,30.11,30.02,8,2,8,0.00
2012-10-6,70.0,59.8,53.2,50.3,29.2,8.2,72,39,9,30.05,29.93,9,1,9,0.00
2012-10-7,66.9,57.9,51.8,47.5,33.8,23.8,67,43,20,29.99,29.90,9,1,9,0.00
2012-10-8,66.6,58.3,52.2,48.3,35.6,20.3,69,46,17,29.99,29.96,10,2,10,0.00
2012-10-9,69.4,60.0,54.1,48.4,34.3,12.3,69,44,12,29.99,29.90,8,1,8,0.00
2012-10-10,68.2,58.2,53.4,49.5,36.0,13.0,71,48,12,29.93,29.84,11,2,11,0.00
2012-10-11,55.4,54.8,53.6,44.1,36.1,31.9,66,50,41,29.93,29.84,12,5,12,0.00
2012-10-12,55.4,55.4,55.4,32.1,32.1,32.1,41,41,41,30.16,29.90,7,2,7,0.00
2012-10-13,58.6,55.7,55.4,37.5,32.6,32.1,47,42,41,30.25,30.14,10,2,10,0.00
2012-10-14,57.6,57.6,57.6,37.5,37.5,37.5,47,47,47,30.16,30.02,6,0,6,0.00
2012-10-15,57.6,57.6,57.6,37.5,37.5,37.5,47,47,47,30.05,29.93,6,1,6,0.00
2012-10-16,78.8,66.5,57.6,50.4,31.7,14.5,59,32,10,29.96,29.84,8,1,8,0.00
2012-10-17,83.7,70.5,59.7,32.8,12.2,6.0,33,12,6,29.90,29.78,8,1,8,0.00
2012-10-18,84.6,73.1,64.2,56.7,18.5,8.5,75,19,6,30.02,29.84,15,4,15,0.00
2012-10-19,64.8,61.9,57.7,62.7,55.5,41.4,93,80,46,30.02,29.90,10,3,10,0.00
2012-10-20,57.7,57.7,57.7,52.0,52.0,52.0,81,81,81,29.90,29.78,9,2,9,0.00
2012-10-21,57.7,57.7,57.7,52.0,52.0,52.0,81,81,81,29.90,29.81,10,3,10,0.04
2012-10-22,57.7,56.2,52.2,52.0,49.3,42.6,81,78,68,29.90,29.66,13,3,13,1.38
2012-10-23,56.8,56.8,56.8,50.1,50.1,50.1,78,78,78,29.99,29.87,11,2,11,0.24
2012-10-24,62.2,56.8,54.0,50.1,41.4,11.5,78,61,14,30.14,29.96,13,3,13,0.04
2012-10-25,54.0,53.1,51.6,44.3,42.5,28.6,71,67,38,30.19,30.11,10,2,10,0.04
2012-10-26,53.4,53.4,53.4,44.3,44.3,44.3,71,71,71,30.16,30.05,8,1,8,0.00
2012-10-27,77.4,61.0,53.4,44.3,30.4,8.6,71,44,8,30.05,29.93,9,2,9,0.00
2012-10-28,78.1,64.8,56.1,42.4,28.3,8.7,60,28,8,29.99,29.90,6,1,6,0.00
2012-10-29,72.3,58.7,53.1,54.7,41.1,20.5,76,57,14,30.08,29.96,5,0,5,0.00
2012-10-30,67.6,57.9,54.0,58.8,44.1,27.5,83,63,23,30.05,29.93,7,1,7,0.00
2012-10-31,58.6,57.9,57.7,55.1,54.2,51.6,89,88,80,29.99,29.93,8,2,10,0.16
2012-11-1,57.7,57.7,57.7,54.5,54.5,54.5,89,89,89,30.02,29.93,8,1,8,0.28
2012-11-2,57.7,56.9,52.7,54.5,49.8,22.9,89,80,31,30.05,29.99,8,2,8,0.00
2012-11-3,52.7,52.7,52.7,22.9,22.9,22.9,31,31,31,30.11,30.02,8,2,8,0.00
2012-11-4,52.7,52.7,52.7,22.9,22.9,22.9,31,31,31,30.16,30.11,8,1,8,0.00
2012-11-5,79.0,67.6,52.7,23.2,13.4,7.2,31,14,7,30.11,30.02,11,3,11,0.00
2012-11-6,83.1,69.7,56.5,31.8,14.1,6.7,39,13,6,30.05,29.99,8,1,8,0.00
2012-11-7,58.5,55.7,52.9,52.7,44.4,32.2,82,67,40,30.02,29.90,10,2,10,0.00
2012-11-8,57.2,50.6,45.1,36.1,17.8,5.0,53,29,14,29.93,29.84,13,4,13,0.00
2012-11-9,57.2,47.8,42.4,38.5,19.6,1.4,70,38,12,29.96,29.84,10,2,10,0.04
2012-11-10,57.9,48.5,43.2,22.8,12.8,1.8,42,26,12,30.16,29.93,10,2,10,0.00
2012-11-11,60.3,48.9,40.8,22.7,10.6,0.5,44,24,12,30.31,30.16,8,2,8,0.00
2012-11-12,61.2,51.9,45.0,7.8,3.8,-0.2,17,14,11,30.31,30.16,10,3,10,0.00
2012-11-13,67.8,57.7,50.4,9.3,5.3,2.5,14,12,10,30.19,30.02,13,4,13,0.00
2012-11-14,66.9,59.3,53.1,20.3,8.4,3.7,26,13,10,30.05,29.93,15,4,15,0.00
2012-11-15,69.3,58.8,53.1,27.0,11.4,3.8,36,16,10,29.96,29.87,10,1,10,0.00
2012-11-16,63.0,56.8,52.9,52.7,33.4,8.4,80,45,14,29.96,29.78,10,2,10,0.35
2012-11-17,60.4,58.1,54.5,56.2,49.0,37.7,86,72,48,29.93,29.72,14,4,14,0.98
2012-11-18,60.1,54.3,50.2,48.8,33.1,8.9,79,50,14,30.11,29.93,8,1,8,0.00
2012-11-19,65.5,57.6,52.7,28.0,14.3,3.4,38,20,10,30.16,30.08,9,2,9,0.00
2012-11-20,64.4,58.6,55.0,50.6,36.1,21.3,74,45,25,30.08,29.96,11,4,11,0.75
2012-11-21,63.9,57.7,48.7,58.2,38.5,6.1,84,55,11,30.14,29.96,9,2,9,0.87
2012-11-22,65.3,54.2,45.7,30.8,20.3,6.1,53,30,10,30.19,30.11,9,2,9,0.00
2012-11-23,66.6,57.1,48.4,28.9,14.6,4.9,43,21,10,30.19,30.11,11,4,11,0.00
2012-11-24,68.9,58.6,51.8,27.1,10.4,3.2,36,16,10,30.11,29.96,9,2,9,0.00
2012-11-25,64.9,54.7,49.6,50.0,32.5,19.7,71,45,18,29.96,29.87,5,0,5,0.00
2012-11-26,60.3,52.8,48.0,46.3,34.8,26.3,66,51,28,30.02,29.90,6,1,6,0.00
2012-11-27,62.8,55.8,50.9,48.7,31.6,11.1,72,45,13,30.05,29.93,8,1,8,0.00
2012-11-28,62.2,57.0,54.7,53.4,30.6,12.8,79,39,17,29.99,29.78,17,5,17,0.51
2012-11-29,59.9,58.1,55.4,51.2,33.6,20.2,73,42,22,29.96,29.81,15,5,15,0.16
2012-11-30,61.3,59.8,57.4,58.6,55.7,51.1,92,86,73,29.96,29.72,15,3,15,2.17
2012-12-1,62.2,59.2,56.5,58.5,52.7,44.1,88,79,63,29.99,29.84,13,3,13,1.61
2012-12-2,61.9,56.2,46.9,59.0,40.4,5.9,91,62,12,30.05,29.69,21,3,21,1.42
2012-12-3,59.4,51.7,45.5,35.4,27.6,14.1,53,40,17,30.14,30.02,6,1,6,0.00
2012-12-4,59.5,55.6,50.7,42.8,30.1,15.8,60,39,19,30.19,30.08,10,1,10,0.08
2012-12-5,63.1,59.3,56.5,57.2,53.3,42.8,87,81,61,30.11,30.02,10,1,10,0.71
2012-12-6,57.9,54.8,48.9,53.6,43.6,26.6,87,69,35,30.08,29.99,8,1,8,0.00
2012-12-7,62.2,52.5,46.9,41.5,23.8,6.0,74,37,11,30.08,29.99,8,1,8,0.00
2012-12-8,60.4,51.2,46.0,31.1,18.0,3.5,52,30,12,30.05,29.96,10,1,10,0.00
2012-12-9,67.3,56.2,47.3,23.3,8.2,1.2,36,16,10,30.14,30.02,10,1,10,0.00
2012-12-10,68.0,57.4,52.3,19.7,8.0,3.7,27,14,10,30.14,30.02,17,3,17,0.00
2012-12-11,54.5,51.3,47.5,38.7,25.4,7.1,64,38,15,30.05,29.78,12,2,12,0.00
2012-12-12,55.4,48.0,42.4,42.8,22.3,2.8,74,40,13,29.81,29.75,9,1,9,0.04
2012-12-13,52.9,45.0,39.9,25.5,14.5,-0.2,53,32,13,29.84,29.75,10,1,10,0.00
2012-12-14,50.9,44.8,40.3,25.3,18.4,4.4,51,36,16,29.93,29.69,5,0,5,0.00
2012-12-15,48.6,44.2,40.6,35.9,29.2,24.6,64,55,45,29.99,29.87,8,1,8,0.12
2012-12-16,54.9,49.7,43.7,48.1,33.9,23.4,80,56,35,30.02,29.93,11,2,11,0.08
2012-12-17,58.1,52.6,44.2,54.7,40.9,18.4,89,68,28,29.96,29.87,11,2,11,0.55
2012-12-18,51.4,43.6,38.5,20.6,3.8,-4.9,38,20,12,30.08,29.87,14,3,14,0.00
2012-12-19,53.8,43.0,34.7,10.0,0.8,-6.1,33,18,11,30.19,30.05,8,2,9,0.00
2012-12-20,57.6,50.1,43.2,5.3,1.1,-4.9,15,13,12,30.11,29.87,13,4,13,0.00
2012-12-21,53.8,50.9,48.2,47.7,25.8,1.7,81,45,14,29.87,29.75,14,4,15,0.55
2012-12-22,55.4,51.1,48.2,45.9,34.6,19.6,76,55,26,29.96,29.72,17,4,17,0.79
2012-12-23,55.6,51.5,48.6,51.2,42.4,26.0,85,72,39,29.96,29.75,17,3,17,1.26
2012-12-24,54.7,48.4,42.8,43.5,24.1,2.8,83,46,13,30.08,29.90,10,1,10,0.00
2012-12-25,50.5,45.9,42.4,42.2,24.6,2.5,73,46,17,30.05,29.66,14,1,14,0.83
2012-12-26,53.1,48.0,44.6,40.5,25.2,10.2,71,42,18,30.02,29.75,13,2,13,0.04
2012-12-27,55.2,46.4,42.1,21.0,15.6,2.1,40,31,13,30.05,29.96,8,2,8,0.00
2012-12-28,46.8,42.9,39.7,26.0,19.4,11.1,54,39,25,30.08,29.93,13,2,13,0.00
2012-12-29,52.5,44.1,40.5,29.4,19.4,2.7,63,40,13,29.99,29.90,13,3,13,0.08
2012-12-30,54.7,45.4,39.2,28.6,13.1,-1.6,50,30,13,30.08,29.90,8,1,8,0.00
2012-12-31,54.3,44.9,36.0,19.3,2.9,-7.5,38,18,13,30.19,30.05,8,1,8,0.00
2013-1-1,51.4,44.8,38.1,20.2,6.0,-3.4,39,22,12,30.14,30.08,17,4,17,0.00